Orrs Island, Maine
Current Conditions -  °F | °C
As of 9:34 PM on Saturday 20 Dec 2014 (Local Time) from KPWM Reporting Station
Overcast Overcast  
Wind Chill: 14°   Ceiling: 900
Heat Index: 24°   Visibility: 10mi
Dew Point: 19°   Wind: 9mph
Humidity: 81%   Direction: 30°NNE
Pressure: 30.38"   Gusts: NA
Location:  43.76°N, 69.98°W
Report Text: KPWM 210234Z 03008KT 10SM OVC009 M04/M07 A3038 RMK AO2 T10441072
Loading
Personal Weather Stations






























Interactive Weather Map New forecast layout! Learn more

10-Day Weather Forecast

Advertisements
Track Severe Weather on mobile